Lords Valley, Pennsylvania
Current Conditions -  °F | °C
As of 5:53 AM on Wednesday 22 Oct 2014 (Local Time) from KMPO Reporting Station
Light Rain Light Rain  
Wind Chill: 44°   Ceiling: 4300
Heat Index: 49°   Visibility: 7mi
Dew Point: 46°   Wind: 13mph
Humidity: 90%   Direction: 20°NNE
Pressure: 29.92"   Gusts: NA
Location:  41.4849°N, 75.2172°W
Report Text: KMPO 220953Z AUTO 02011KT 7SM -RA FEW008 OVC043 09/08 A2992 RMK AO2 RAB00 SLP135 T00940078 TSNO PNO $
Loading
Personal Weather Stations






























Interactive Weather Map
Tropical Storm Tracking
New forecast layout! Learn more

10-Day Weather Forecast

Advertisements
Track Severe Weather on mobile